Morretes, Brazil
Current Conditions -  °F | °C
As of 2:00 AM on Friday 28 Nov 2014 (Local Time) from SBCT Reporting Station
Broken Clouds Broken Clouds  
Wind Chill: 63°   Ceiling: 1000
Heat Index: 63°   Visibility: 6mi
Dew Point: 57°   Wind: 5mph
Humidity: 82%   Direction: 90°E
Pressure: 30.06"   Gusts: NA
Location:  25.48°S, 48.83°W
Report Text: SBCT 280400Z 09004KT 9999 BKN010 17/14 Q1018
Loading
Personal Weather Stations






























Interactive Weather Map New forecast layout! Learn more

10-Day Weather Forecast

Advertisements
Track Severe Weather on mobile